Terminal Aerodrome Forecast
Issued by NWS

Home | Current Version | Previous Version | Text Only | Print | Product List | Glossary On
Versions: 1 2 3 4 5 6 7 8 9 10 11 12 13 14 15 16 17
508
FTUS46 KMTR 021739
TAFMRY
TAF
KMRY 021739Z 0218/0318 00000KT P6SM OVC012
     FM021900 25008KT P6SM SCT018
     FM030100 25005KT P6SM BKN011
     FM030300 21004KT P6SM OVC007
     FM031600 29005KT P6SM OVC010=

USA.gov is the U.S. government's official web portal to all federal, state and local government web resources and services.